sensor_id;sensor_type;location;lat;lon;timestamp;P1;durP1;ratioP1;P2;durP2;ratioP2
55483;SDS011;41345;51.704;5.146;2023-03-23T00:00:28;20.80;;;19.17;;
55483;SDS011;41345;51.704;5.146;2023-03-23T00:05:28;18.20;;;17.00;;
55483;SDS011;41345;51.704;5.146;2023-03-23T00:10:29;21.08;;;19.52;;
55483;SDS011;41345;51.704;5.146;2023-03-23T00:15:33;16.20;;;14.60;;
55483;SDS011;41345;51.704;5.146;2023-03-23T00:20:33;15.00;;;13.70;;
55483;SDS011;41345;51.704;5.146;2023-03-23T00:25:40;17.75;;;16.35;;
55483;SDS011;41345;51.704;5.146;2023-03-23T00:30:41;23.35;;;21.85;;
55483;SDS011;41345;51.704;5.146;2023-03-23T00:35:42;25.83;;;24.13;;
55483;SDS011;41345;51.704;5.146;2023-03-23T00:40:44;29.88;;;27.88;;
55483;SDS011;41345;51.704;5.146;2023-03-23T00:45:45;27.80;;;25.67;;
55483;SDS011;41345;51.704;5.146;2023-03-23T00:50:52;29.25;;;27.05;;
55483;SDS011;41345;51.704;5.146;2023-03-23T00:55:52;28.20;;;26.30;;
55483;SDS011;41345;51.704;5.146;2023-03-23T01:00:53;28.33;;;26.42;;
55483;SDS011;41345;51.704;5.146;2023-03-23T01:05:53;26.88;;;25.15;;
55483;SDS011;41345;51.704;5.146;2023-03-23T01:11:01;26.00;;;24.30;;
55483;SDS011;41345;51.704;5.146;2023-03-23T01:16:02;26.25;;;24.48;;
55483;SDS011;41345;51.704;5.146;2023-03-23T01:21:03;25.92;;;24.05;;
55483;SDS011;41345;51.704;5.146;2023-03-23T01:26:08;26.05;;;24.25;;
55483;SDS011;41345;51.704;5.146;2023-03-23T01:31:10;25.30;;;23.70;;
55483;SDS011;41345;51.704;5.146;2023-03-23T01:36:16;24.77;;;23.08;;
55483;SDS011;41345;51.704;5.146;2023-03-23T01:46:16;25.30;;;23.45;;
55483;SDS011;41345;51.704;5.146;2023-03-23T01:51:17;23.42;;;22.02;;
55483;SDS011;41345;51.704;5.146;2023-03-23T01:56:19;21.38;;;19.98;;
55483;SDS011;41345;51.704;5.146;2023-03-23T02:01:20;22.10;;;20.60;;
55483;SDS011;41345;51.704;5.146;2023-03-23T02:06:25;20.08;;;18.77;;
55483;SDS011;41345;51.704;5.146;2023-03-23T02:11:26;20.42;;;18.92;;
55483;SDS011;41345;51.704;5.146;2023-03-23T02:22:00;15.70;;;14.45;;
55483;SDS011;41345;51.704;5.146;2023-03-23T02:32:51;15.02;;;13.60;;
55483;SDS011;41345;51.704;5.146;2023-03-23T02:37:55;15.02;;;13.65;;
55483;SDS011;41345;51.704;5.146;2023-03-23T02:47:57;11.23;;;10.13;;
55483;SDS011;41345;51.704;5.146;2023-03-23T02:52:58;12.68;;;11.48;;
55483;SDS011;41345;51.704;5.146;2023-03-23T02:58:00;14.60;;;12.93;;
55483;SDS011;41345;51.704;5.146;2023-03-23T03:03:01;13.55;;;12.35;;
55483;SDS011;41345;51.704;5.146;2023-03-23T03:08:14;14.40;;;13.10;;
55483;SDS011;41345;51.704;5.146;2023-03-23T03:18:42;10.07;;;9.18;;
55483;SDS011;41345;51.704;5.146;2023-03-23T03:23:39;10.18;;;8.75;;
55483;SDS011;41345;51.704;5.146;2023-03-23T03:28:41;9.15;;;8.25;;
55483;SDS011;41345;51.704;5.146;2023-03-23T03:33:43;9.10;;;8.23;;
55483;SDS011;41345;51.704;5.146;2023-03-23T03:38:44;10.18;;;8.18;;
55483;SDS011;41345;51.704;5.146;2023-03-23T03:43:45;8.40;;;7.53;;
55483;SDS011;41345;51.704;5.146;2023-03-23T03:48:45;11.07;;;8.35;;
55483;SDS011;41345;51.704;5.146;2023-03-23T03:53:46;7.35;;;6.35;;
55483;SDS011;41345;51.704;5.146;2023-03-23T03:58:46;12.35;;;8.05;;
55483;SDS011;41345;51.704;5.146;2023-03-23T04:03:48;9.40;;;7.70;;
55483;SDS011;41345;51.704;5.146;2023-03-23T04:08:49;7.25;;;6.53;;
55483;SDS011;41345;51.704;5.146;2023-03-23T04:13:49;9.02;;;5.80;;
55483;SDS011;41345;51.704;5.146;2023-03-23T04:18:49;7.82;;;5.82;;
55483;SDS011;41345;51.704;5.146;2023-03-23T04:23:50;8.68;;;5.75;;
55483;SDS011;41345;51.704;5.146;2023-03-23T04:28:50;8.98;;;6.40;;
55483;SDS011;41345;51.704;5.146;2023-03-23T04:33:52;7.43;;;4.80;;
55483;SDS011;41345;51.704;5.146;2023-03-23T04:38:52;8.17;;;6.00;;
55483;SDS011;41345;51.704;5.146;2023-03-23T04:43:54;12.45;;;7.15;;
55483;SDS011;41345;51.704;5.146;2023-03-23T04:48:57;11.93;;;6.50;;
55483;SDS011;41345;51.704;5.146;2023-03-23T04:54:00;10.00;;;5.30;;
55483;SDS011;41345;51.704;5.146;2023-03-23T04:59:01;9.52;;;4.97;;
55483;SDS011;41345;51.704;5.146;2023-03-23T05:04:03;9.55;;;6.43;;
55483;SDS011;41345;51.704;5.146;2023-03-23T05:09:04;13.80;;;5.88;;
55483;SDS011;41345;51.704;5.146;2023-03-23T05:14:04;9.75;;;5.68;;
55483;SDS011;41345;51.704;5.146;2023-03-23T05:19:05;10.30;;;5.60;;
55483;SDS011;41345;51.704;5.146;2023-03-23T05:24:05;9.60;;;5.10;;
55483;SDS011;41345;51.704;5.146;2023-03-23T05:29:06;7.60;;;4.70;;
55483;SDS011;41345;51.704;5.146;2023-03-23T05:34:06;7.43;;;6.47;;
55483;SDS011;41345;51.704;5.146;2023-03-23T05:39:06;10.02;;;6.28;;
55483;SDS011;41345;51.704;5.146;2023-03-23T05:44:08;8.63;;;6.13;;
55483;SDS011;41345;51.704;5.146;2023-03-23T05:49:09;9.35;;;8.15;;
55483;SDS011;41345;51.704;5.146;2023-03-23T05:54:09;12.03;;;7.67;;
55483;SDS011;41345;51.704;5.146;2023-03-23T05:59:10;13.68;;;9.48;;
55483;SDS011;41345;51.704;5.146;2023-03-23T06:04:11;16.27;;;10.10;;
55483;SDS011;41345;51.704;5.146;2023-03-23T06:09:11;13.90;;;10.50;;
55483;SDS011;41345;51.704;5.146;2023-03-23T06:14:12;15.00;;;9.63;;
55483;SDS011;41345;51.704;5.146;2023-03-23T06:19:12;11.75;;;9.07;;
55483;SDS011;41345;51.704;5.146;2023-03-23T06:24:12;15.45;;;13.63;;
55483;SDS011;41345;51.704;5.146;2023-03-23T06:29:13;16.10;;;14.77;;
55483;SDS011;41345;51.704;5.146;2023-03-23T06:34:13;21.73;;;19.75;;
55483;SDS011;41345;51.704;5.146;2023-03-23T06:39:14;23.83;;;21.90;;
55483;SDS011;41345;51.704;5.146;2023-03-23T06:44:15;27.50;;;25.17;;
55483;SDS011;41345;51.704;5.146;2023-03-23T06:49:15;28.13;;;26.03;;
55483;SDS011;41345;51.704;5.146;2023-03-23T06:54:16;34.80;;;31.92;;
55483;SDS011;41345;51.704;5.146;2023-03-23T06:59:16;36.55;;;33.78;;
55483;SDS011;41345;51.704;5.146;2023-03-23T07:04:16;35.72;;;33.00;;
55483;SDS011;41345;51.704;5.146;2023-03-23T07:09:17;38.20;;;34.93;;
55483;SDS011;41345;51.704;5.146;2023-03-23T07:14:17;38.73;;;35.30;;
55483;SDS011;41345;51.704;5.146;2023-03-23T07:19:17;37.50;;;34.30;;
55483;SDS011;41345;51.704;5.146;2023-03-23T07:24:18;37.63;;;34.80;;
55483;SDS011;41345;51.704;5.146;2023-03-23T07:29:19;37.65;;;34.95;;
55483;SDS011;41345;51.704;5.146;2023-03-23T07:34:19;37.20;;;34.47;;
55483;SDS011;41345;51.704;5.146;2023-03-23T07:39:20;33.95;;;31.65;;
55483;SDS011;41345;51.704;5.146;2023-03-23T07:44:21;36.00;;;32.73;;
55483;SDS011;41345;51.704;5.146;2023-03-23T07:49:22;33.15;;;30.80;;
55483;SDS011;41345;51.704;5.146;2023-03-23T07:54:22;34.57;;;31.97;;
55483;SDS011;41345;51.704;5.146;2023-03-23T07:59:22;35.55;;;32.97;;
55483;SDS011;41345;51.704;5.146;2023-03-23T08:04:23;32.83;;;30.48;;
55483;SDS011;41345;51.704;5.146;2023-03-23T08:09:23;33.30;;;30.75;;
55483;SDS011;41345;51.704;5.146;2023-03-23T08:14:23;30.65;;;28.48;;
55483;SDS011;41345;51.704;5.146;2023-03-23T08:19:27;29.07;;;27.30;;
55483;SDS011;41345;51.704;5.146;2023-03-23T08:24:27;29.58;;;27.77;;
55483;SDS011;41345;51.704;5.146;2023-03-23T08:29:28;28.42;;;26.17;;
55483;SDS011;41345;51.704;5.146;2023-03-23T08:34:28;28.80;;;26.63;;
55483;SDS011;41345;51.704;5.146;2023-03-23T08:39:28;29.00;;;26.98;;
55483;SDS011;41345;51.704;5.146;2023-03-23T08:44:30;29.73;;;27.70;;
55483;SDS011;41345;51.704;5.146;2023-03-23T08:49:31;28.73;;;26.77;;
55483;SDS011;41345;51.704;5.146;2023-03-23T08:54:32;31.20;;;29.20;;
55483;SDS011;41345;51.704;5.146;2023-03-23T08:59:32;28.67;;;26.80;;
55483;SDS011;41345;51.704;5.146;2023-03-23T09:04:33;28.85;;;26.77;;
55483;SDS011;41345;51.704;5.146;2023-03-23T09:09:33;18.88;;;17.38;;
55483;SDS011;41345;51.704;5.146;2023-03-23T09:14:34;21.27;;;19.67;;
55483;SDS011;41345;51.704;5.146;2023-03-23T09:19:35;22.25;;;20.27;;
55483;SDS011;41345;51.704;5.146;2023-03-23T09:24:36;10.57;;;8.95;;
55483;SDS011;41345;51.704;5.146;2023-03-23T09:29:37;15.80;;;9.52;;
55483;SDS011;41345;51.704;5.146;2023-03-23T09:34:38;11.02;;;5.10;;
55483;SDS011;41345;51.704;5.146;2023-03-23T09:39:39;13.75;;;4.50;;
55483;SDS011;41345;51.704;5.146;2023-03-23T09:49:42;11.33;;;2.70;;
55483;SDS011;41345;51.704;5.146;2023-03-23T09:54:47;12.05;;;3.35;;
55483;SDS011;41345;51.704;5.146;2023-03-23T09:59:52;14.18;;;3.38;;
55483;SDS011;41345;51.704;5.146;2023-03-23T10:04:54;12.25;;;3.17;;
55483;SDS011;41345;51.704;5.146;2023-03-23T10:09:56;8.25;;;2.35;;
55483;SDS011;41345;51.704;5.146;2023-03-23T10:25:15;13.00;;;2.90;;
55483;SDS011;41345;51.704;5.146;2023-03-23T10:35:20;10.87;;;2.80;;
55483;SDS011;41345;51.704;5.146;2023-03-23T10:40:24;9.57;;;2.60;;
55483;SDS011;41345;51.704;5.146;2023-03-23T10:45:27;10.53;;;2.00;;
55483;SDS011;41345;51.704;5.146;2023-03-23T10:50:30;10.70;;;2.40;;
55483;SDS011;41345;51.704;5.146;2023-03-23T10:55:35;10.13;;;2.10;;
55483;SDS011;41345;51.704;5.146;2023-03-23T11:00:41;9.60;;;2.28;;
55483;SDS011;41345;51.704;5.146;2023-03-23T11:05:48;8.75;;;2.15;;
55483;SDS011;41345;51.704;5.146;2023-03-23T11:15:49;8.85;;;1.77;;
55483;SDS011;41345;51.704;5.146;2023-03-23T11:20:52;10.98;;;1.90;;
55483;SDS011;41345;51.704;5.146;2023-03-23T11:31:01;11.95;;;2.20;;
55483;SDS011;41345;51.704;5.146;2023-03-23T11:36:02;9.27;;;2.25;;
55483;SDS011;41345;51.704;5.146;2023-03-23T11:41:08;7.88;;;2.10;;
55483;SDS011;41345;51.704;5.146;2023-03-23T11:51:33;8.68;;;1.52;;
55483;SDS011;41345;51.704;5.146;2023-03-23T11:56:38;10.98;;;1.80;;
55483;SDS011;41345;51.704;5.146;2023-03-23T12:01:56;7.78;;;1.75;;
55483;SDS011;41345;51.704;5.146;2023-03-23T12:07:00;7.50;;;1.67;;
55483;SDS011;41345;51.704;5.146;2023-03-23T12:12:51;5.20;;;1.50;;
55483;SDS011;41345;51.704;5.146;2023-03-23T12:22:35;8.03;;;1.77;;
55483;SDS011;41345;51.704;5.146;2023-03-23T12:28:15;11.43;;;2.00;;
55483;SDS011;41345;51.704;5.146;2023-03-23T12:43:39;33.08;;;30.00;;
55483;SDS011;41345;51.704;5.146;2023-03-23T12:48:45;20.13;;;18.58;;
55483;SDS011;41345;51.704;5.146;2023-03-23T12:53:52;29.20;;;27.03;;
55483;SDS011;41345;51.704;5.146;2023-03-23T12:59:30;13.90;;;12.50;;
55483;SDS011;41345;51.704;5.146;2023-03-23T13:04:23;9.52;;;2.72;;
55483;SDS011;41345;51.704;5.146;2023-03-23T13:24:53;9.88;;;2.60;;
55483;SDS011;41345;51.704;5.146;2023-03-23T13:29:55;9.77;;;2.25;;
55483;SDS011;41345;51.704;5.146;2023-03-23T13:34:55;7.75;;;1.70;;
55483;SDS011;41345;51.704;5.146;2023-03-23T13:39:57;7.05;;;1.38;;
55483;SDS011;41345;51.704;5.146;2023-03-23T14:00:26;7.32;;;2.17;;
55483;SDS011;41345;51.704;5.146;2023-03-23T14:05:36;8.90;;;1.50;;
55483;SDS011;41345;51.704;5.146;2023-03-23T14:15:42;9.48;;;2.20;;
55483;SDS011;41345;51.704;5.146;2023-03-23T14:20:45;6.97;;;1.42;;
55483;SDS011;41345;51.704;5.146;2023-03-23T14:25:54;10.88;;;2.13;;
55483;SDS011;41345;51.704;5.146;2023-03-23T14:30:55;12.35;;;2.30;;
55483;SDS011;41345;51.704;5.146;2023-03-23T14:35:58;12.68;;;2.70;;
55483;SDS011;41345;51.704;5.146;2023-03-23T14:41:00;10.52;;;2.75;;
55483;SDS011;41345;51.704;5.146;2023-03-23T14:46:01;12.55;;;2.47;;
55483;SDS011;41345;51.704;5.146;2023-03-23T14:51:03;8.55;;;2.53;;
55483;SDS011;41345;51.704;5.146;2023-03-23T14:56:11;13.65;;;2.67;;
55483;SDS011;41345;51.704;5.146;2023-03-23T15:01:14;11.30;;;2.40;;
55483;SDS011;41345;51.704;5.146;2023-03-23T15:06:17;10.75;;;2.53;;
55483;SDS011;41345;51.704;5.146;2023-03-23T15:11:27;11.48;;;2.25;;
55483;SDS011;41345;51.704;5.146;2023-03-23T15:16:32;9.88;;;2.10;;
55483;SDS011;41345;51.704;5.146;2023-03-23T15:21:33;13.02;;;2.55;;
55483;SDS011;41345;51.704;5.146;2023-03-23T15:26:41;7.35;;;2.20;;
55483;SDS011;41345;51.704;5.146;2023-03-23T15:31:43;11.38;;;2.60;;
55483;SDS011;41345;51.704;5.146;2023-03-23T15:36:43;8.50;;;2.45;;
55483;SDS011;41345;51.704;5.146;2023-03-23T15:41:48;9.88;;;2.30;;
55483;SDS011;41345;51.704;5.146;2023-03-23T15:46:49;10.25;;;2.17;;
55483;SDS011;41345;51.704;5.146;2023-03-23T15:51:50;9.50;;;2.00;;
55483;SDS011;41345;51.704;5.146;2023-03-23T15:56:50;10.83;;;2.50;;
55483;SDS011;41345;51.704;5.146;2023-03-23T16:01:51;9.35;;;1.98;;
55483;SDS011;41345;51.704;5.146;2023-03-23T16:06:51;10.05;;;2.00;;
55483;SDS011;41345;51.704;5.146;2023-03-23T16:11:52;8.20;;;1.95;;
55483;SDS011;41345;51.704;5.146;2023-03-23T16:16:52;10.27;;;1.80;;
55483;SDS011;41345;51.704;5.146;2023-03-23T16:21:53;6.13;;;1.60;;
55483;SDS011;41345;51.704;5.146;2023-03-23T16:26:53;10.45;;;2.20;;
55483;SDS011;41345;51.704;5.146;2023-03-23T16:31:53;10.50;;;1.95;;
55483;SDS011;41345;51.704;5.146;2023-03-23T16:36:54;8.95;;;2.17;;
55483;SDS011;41345;51.704;5.146;2023-03-23T16:41:55;10.32;;;2.20;;
55483;SDS011;41345;51.704;5.146;2023-03-23T16:46:55;7.83;;;2.07;;
55483;SDS011;41345;51.704;5.146;2023-03-23T16:51:55;10.70;;;2.20;;
55483;SDS011;41345;51.704;5.146;2023-03-23T16:56:56;9.43;;;2.97;;
55483;SDS011;41345;51.704;5.146;2023-03-23T17:01:56;10.25;;;2.53;;
55483;SDS011;41345;51.704;5.146;2023-03-23T17:07:02;9.80;;;2.60;;
55483;SDS011;41345;51.704;5.146;2023-03-23T17:12:03;7.90;;;2.78;;
55483;SDS011;41345;51.704;5.146;2023-03-23T17:17:03;9.35;;;2.30;;
55483;SDS011;41345;51.704;5.146;2023-03-23T17:22:03;13.48;;;2.92;;
55483;SDS011;41345;51.704;5.146;2023-03-23T17:27:04;12.35;;;3.42;;
55483;SDS011;41345;51.704;5.146;2023-03-23T17:32:05;10.35;;;3.30;;
55483;SDS011;41345;51.704;5.146;2023-03-23T17:37:05;12.70;;;3.75;;
55483;SDS011;41345;51.704;5.146;2023-03-23T17:42:05;16.30;;;4.10;;
55483;SDS011;41345;51.704;5.146;2023-03-23T17:47:06;12.70;;;3.58;;
55483;SDS011;41345;51.704;5.146;2023-03-23T17:52:06;10.73;;;3.80;;
55483;SDS011;41345;51.704;5.146;2023-03-23T17:57:06;13.60;;;3.33;;
55483;SDS011;41345;51.704;5.146;2023-03-23T18:02:07;12.73;;;4.80;;
55483;SDS011;41345;51.704;5.146;2023-03-23T18:07:07;8.55;;;3.42;;
55483;SDS011;41345;51.704;5.146;2023-03-23T18:12:07;7.88;;;3.85;;
55483;SDS011;41345;51.704;5.146;2023-03-23T18:17:08;11.65;;;4.25;;
55483;SDS011;41345;51.704;5.146;2023-03-23T18:22:08;10.50;;;4.30;;
55483;SDS011;41345;51.704;5.146;2023-03-23T18:27:08;11.93;;;4.85;;
55483;SDS011;41345;51.704;5.146;2023-03-23T18:32:09;13.17;;;6.70;;
55483;SDS011;41345;51.704;5.146;2023-03-23T18:37:09;14.95;;;6.68;;
55483;SDS011;41345;51.704;5.146;2023-03-23T18:42:09;15.10;;;6.85;;
55483;SDS011;41345;51.704;5.146;2023-03-23T18:47:10;12.00;;;6.97;;
55483;SDS011;41345;51.704;5.146;2023-03-23T18:52:10;12.47;;;6.17;;
55483;SDS011;41345;51.704;5.146;2023-03-23T18:57:11;12.13;;;5.97;;
55483;SDS011;41345;51.704;5.146;2023-03-23T19:02:11;11.90;;;6.00;;
55483;SDS011;41345;51.704;5.146;2023-03-23T19:07:13;12.57;;;5.90;;
55483;SDS011;41345;51.704;5.146;2023-03-23T19:12:13;11.10;;;6.13;;
55483;SDS011;41345;51.704;5.146;2023-03-23T19:17:14;12.55;;;7.10;;
55483;SDS011;41345;51.704;5.146;2023-03-23T19:22:15;14.93;;;7.55;;
55483;SDS011;41345;51.704;5.146;2023-03-23T19:27:15;14.53;;;7.77;;
55483;SDS011;41345;51.704;5.146;2023-03-23T19:32:16;13.70;;;9.20;;
55483;SDS011;41345;51.704;5.146;2023-03-23T19:37:17;11.02;;;7.35;;
55483;SDS011;41345;51.704;5.146;2023-03-23T19:42:17;10.75;;;8.32;;
55483;SDS011;41345;51.704;5.146;2023-03-23T19:47:19;13.65;;;9.82;;
55483;SDS011;41345;51.704;5.146;2023-03-23T19:52:19;20.88;;;14.07;;
55483;SDS011;41345;51.704;5.146;2023-03-23T19:57:19;17.33;;;15.40;;
55483;SDS011;41345;51.704;5.146;2023-03-23T20:02:21;17.25;;;15.65;;
55483;SDS011;41345;51.704;5.146;2023-03-23T20:07:21;22.90;;;20.90;;
55483;SDS011;41345;51.704;5.146;2023-03-23T20:12:21;22.02;;;19.70;;
55483;SDS011;41345;51.704;5.146;2023-03-23T20:17:22;24.40;;;22.15;;
55483;SDS011;41345;51.704;5.146;2023-03-23T20:22:22;26.25;;;24.08;;
55483;SDS011;41345;51.704;5.146;2023-03-23T20:27:22;26.42;;;24.00;;
55483;SDS011;41345;51.704;5.146;2023-03-23T20:32:23;26.80;;;24.40;;
55483;SDS011;41345;51.704;5.146;2023-03-23T20:37:23;27.75;;;25.67;;
55483;SDS011;41345;51.704;5.146;2023-03-23T20:42:24;29.75;;;27.33;;
55483;SDS011;41345;51.704;5.146;2023-03-23T20:47:25;30.55;;;27.95;;
55483;SDS011;41345;51.704;5.146;2023-03-23T20:52:27;28.10;;;25.58;;
55483;SDS011;41345;51.704;5.146;2023-03-23T20:57:27;29.33;;;27.30;;
55483;SDS011;41345;51.704;5.146;2023-03-23T21:02:27;28.83;;;26.52;;
55483;SDS011;41345;51.704;5.146;2023-03-23T21:07:28;28.33;;;26.33;;
55483;SDS011;41345;51.704;5.146;2023-03-23T21:12:29;28.30;;;26.08;;
55483;SDS011;41345;51.704;5.146;2023-03-23T21:17:31;28.38;;;25.95;;
55483;SDS011;41345;51.704;5.146;2023-03-23T21:22:31;28.73;;;26.33;;
55483;SDS011;41345;51.704;5.146;2023-03-23T21:27:31;29.23;;;26.95;;
55483;SDS011;41345;51.704;5.146;2023-03-23T21:32:31;25.10;;;23.23;;
55483;SDS011;41345;51.704;5.146;2023-03-23T21:37:32;27.98;;;26.00;;
55483;SDS011;41345;51.704;5.146;2023-03-23T21:42:32;29.13;;;27.23;;
55483;SDS011;41345;51.704;5.146;2023-03-23T21:47:32;30.90;;;28.70;;
55483;SDS011;41345;51.704;5.146;2023-03-23T21:52:33;32.50;;;29.87;;
55483;SDS011;41345;51.704;5.146;2023-03-23T21:57:33;31.73;;;29.42;;
55483;SDS011;41345;51.704;5.146;2023-03-23T22:02:33;33.38;;;30.83;;
55483;SDS011;41345;51.704;5.146;2023-03-23T22:07:34;32.33;;;29.90;;
55483;SDS011;41345;51.704;5.146;2023-03-23T22:12:38;34.00;;;31.70;;
55483;SDS011;41345;51.704;5.146;2023-03-23T22:17:38;33.35;;;31.05;;
55483;SDS011;41345;51.704;5.146;2023-03-23T22:22:39;33.50;;;31.20;;
55483;SDS011;41345;51.704;5.146;2023-03-23T22:27:39;34.92;;;32.42;;
55483;SDS011;41345;51.704;5.146;2023-03-23T22:32:41;35.40;;;32.50;;
55483;SDS011;41345;51.704;5.146;2023-03-23T22:37:42;35.23;;;32.60;;
55483;SDS011;41345;51.704;5.146;2023-03-23T22:42:42;34.75;;;32.20;;
55483;SDS011;41345;51.704;5.146;2023-03-23T22:47:42;35.67;;;32.65;;
55483;SDS011;41345;51.704;5.146;2023-03-23T22:52:42;35.23;;;32.83;;
55483;SDS011;41345;51.704;5.146;2023-03-23T22:57:43;37.00;;;34.00;;
55483;SDS011;41345;51.704;5.146;2023-03-23T23:02:43;36.60;;;33.87;;
55483;SDS011;41345;51.704;5.146;2023-03-23T23:07:44;36.35;;;33.63;;
55483;SDS011;41345;51.704;5.146;2023-03-23T23:12:44;36.22;;;33.67;;
55483;SDS011;41345;51.704;5.146;2023-03-23T23:17:46;37.95;;;34.90;;
55483;SDS011;41345;51.704;5.146;2023-03-23T23:22:47;37.22;;;34.67;;
55483;SDS011;41345;51.704;5.146;2023-03-23T23:27:47;38.17;;;35.28;;
55483;SDS011;41345;51.704;5.146;2023-03-23T23:32:47;36.80;;;34.27;;
55483;SDS011;41345;51.704;5.146;2023-03-23T23:37:51;37.15;;;34.55;;
55483;SDS011;41345;51.704;5.146;2023-03-23T23:42:51;36.85;;;34.22;;
55483;SDS011;41345;51.704;5.146;2023-03-23T23:47:51;37.95;;;35.25;;
55483;SDS011;41345;51.704;5.146;2023-03-23T23:52:52;37.28;;;34.67;;
55483;SDS011;41345;51.704;5.146;2023-03-23T23:57:52;38.58;;;35.90;;
